sensor_id;sensor_type;location;lat;lon;timestamp;P1;durP1;ratioP1;P2;durP2;ratioP2
10275;SDS011;5183;51.190;6.820;2022-09-03T00:01:09;2.90;;;1.60;;
10275;SDS011;5183;51.190;6.820;2022-09-03T00:03:44;3.17;;;1.93;;
10275;SDS011;5183;51.190;6.820;2022-09-03T00:06:16;3.70;;;1.77;;
10275;SDS011;5183;51.190;6.820;2022-09-03T00:08:50;1.63;;;1.53;;
10275;SDS011;5183;51.190;6.820;2022-09-03T00:11:24;2.13;;;1.70;;
10275;SDS011;5183;51.190;6.820;2022-09-03T00:13:56;2.53;;;1.60;;
10275;SDS011;5183;51.190;6.820;2022-09-03T00:16:30;1.73;;;1.63;;
10275;SDS011;5183;51.190;6.820;2022-09-03T00:19:05;1.97;;;1.60;;
10275;SDS011;5183;51.190;6.820;2022-09-03T00:21:34;2.17;;;1.70;;
10275;SDS011;5183;51.190;6.820;2022-09-03T00:24:06;2.20;;;1.50;;
10275;SDS011;5183;51.190;6.820;2022-09-03T00:26:37;3.67;;;1.77;;
10275;SDS011;5183;51.190;6.820;2022-09-03T00:29:10;3.23;;;1.70;;
10275;SDS011;5183;51.190;6.820;2022-09-03T00:31:43;1.70;;;1.60;;
10275;SDS011;5183;51.190;6.820;2022-09-03T00:34:14;2.43;;;1.60;;
10275;SDS011;5183;51.190;6.820;2022-09-03T00:36:46;2.03;;;1.77;;
10275;SDS011;5183;51.190;6.820;2022-09-03T00:39:14;3.07;;;1.70;;
10275;SDS011;5183;51.190;6.820;2022-09-03T00:41:46;2.97;;;1.70;;
10275;SDS011;5183;51.190;6.820;2022-09-03T00:44:28;2.50;;;1.60;;
10275;SDS011;5183;51.190;6.820;2022-09-03T00:47:22;3.50;;;1.50;;
10275;SDS011;5183;51.190;6.820;2022-09-03T00:49:57;1.60;;;1.50;;
10275;SDS011;5183;51.190;6.820;2022-09-03T00:52:37;2.13;;;1.50;;
10275;SDS011;5183;51.190;6.820;2022-09-03T00:55:12;2.93;;;1.53;;
10275;SDS011;5183;51.190;6.820;2022-09-03T00:57:49;3.20;;;1.40;;
10275;SDS011;5183;51.190;6.820;2022-09-03T01:00:24;1.40;;;1.30;;
10275;SDS011;5183;51.190;6.820;2022-09-03T01:02:56;2.83;;;1.40;;
10275;SDS011;5183;51.190;6.820;2022-09-03T01:05:35;2.57;;;1.50;;
10275;SDS011;5183;51.190;6.820;2022-09-03T01:08:12;2.83;;;1.50;;
10275;SDS011;5183;51.190;6.820;2022-09-03T01:10:50;2.00;;;1.40;;
10275;SDS011;5183;51.190;6.820;2022-09-03T01:13:22;2.10;;;1.33;;
10275;SDS011;5183;51.190;6.820;2022-09-03T01:15:56;1.53;;;1.43;;
10275;SDS011;5183;51.190;6.820;2022-09-03T01:18:34;2.00;;;1.40;;
10275;SDS011;5183;51.190;6.820;2022-09-03T01:21:13;3.53;;;1.80;;
10275;SDS011;5183;51.190;6.820;2022-09-03T01:23:59;1.80;;;1.50;;
10275;SDS011;5183;51.190;6.820;2022-09-03T01:29:43;1.67;;;1.53;;
10275;SDS011;5183;51.190;6.820;2022-09-03T01:32:18;2.27;;;1.70;;
10275;SDS011;5183;51.190;6.820;2022-09-03T01:34:52;1.60;;;1.43;;
10275;SDS011;5183;51.190;6.820;2022-09-03T01:37:36;2.27;;;1.70;;
10275;SDS011;5183;51.190;6.820;2022-09-03T01:40:14;2.63;;;1.53;;
10275;SDS011;5183;51.190;6.820;2022-09-03T01:42:52;1.80;;;1.30;;
10275;SDS011;5183;51.190;6.820;2022-09-03T01:45:32;4.70;;;1.70;;
10275;SDS011;5183;51.190;6.820;2022-09-03T01:48:21;1.93;;;1.60;;
10275;SDS011;5183;51.190;6.820;2022-09-03T01:51:02;1.80;;;1.53;;
10275;SDS011;5183;51.190;6.820;2022-09-03T01:53:40;1.93;;;1.50;;
10275;SDS011;5183;51.190;6.820;2022-09-03T01:56:24;3.60;;;1.50;;
10275;SDS011;5183;51.190;6.820;2022-09-03T01:59:00;2.77;;;1.50;;
10275;SDS011;5183;51.190;6.820;2022-09-03T02:01:32;3.00;;;1.73;;
10275;SDS011;5183;51.190;6.820;2022-09-03T02:04:12;2.40;;;1.47;;
10275;SDS011;5183;51.190;6.820;2022-09-03T02:06:41;2.37;;;1.67;;
10275;SDS011;5183;51.190;6.820;2022-09-03T02:09:08;1.70;;;1.40;;
10275;SDS011;5183;51.190;6.820;2022-09-03T02:11:35;2.57;;;1.57;;
10275;SDS011;5183;51.190;6.820;2022-09-03T02:14:03;2.47;;;1.70;;
10275;SDS011;5183;51.190;6.820;2022-09-03T02:16:31;3.33;;;1.50;;
10275;SDS011;5183;51.190;6.820;2022-09-03T02:19:01;1.63;;;1.40;;
10275;SDS011;5183;51.190;6.820;2022-09-03T02:21:32;1.80;;;1.43;;
10275;SDS011;5183;51.190;6.820;2022-09-03T02:24:02;2.73;;;1.40;;
10275;SDS011;5183;51.190;6.820;2022-09-03T02:26:30;2.53;;;1.40;;
10275;SDS011;5183;51.190;6.820;2022-09-03T02:28:57;1.83;;;1.60;;
10275;SDS011;5183;51.190;6.820;2022-09-03T02:31:24;1.63;;;1.50;;
10275;SDS011;5183;51.190;6.820;2022-09-03T02:33:55;3.43;;;1.50;;
10275;SDS011;5183;51.190;6.820;2022-09-03T02:36:24;2.40;;;1.70;;
10275;SDS011;5183;51.190;6.820;2022-09-03T02:38:53;1.67;;;1.50;;
10275;SDS011;5183;51.190;6.820;2022-09-03T02:41:20;1.67;;;1.27;;
10275;SDS011;5183;51.190;6.820;2022-09-03T02:43:49;1.80;;;1.60;;
10275;SDS011;5183;51.190;6.820;2022-09-03T02:46:21;1.40;;;1.30;;
10275;SDS011;5183;51.190;6.820;2022-09-03T02:48:51;1.97;;;1.60;;
10275;SDS011;5183;51.190;6.820;2022-09-03T02:51:19;2.83;;;1.47;;
10275;SDS011;5183;51.190;6.820;2022-09-03T02:53:46;1.90;;;1.70;;
10275;SDS011;5183;51.190;6.820;2022-09-03T02:56:13;2.47;;;1.30;;
10275;SDS011;5183;51.190;6.820;2022-09-03T02:58:40;1.57;;;1.40;;
10275;SDS011;5183;51.190;6.820;2022-09-03T03:01:07;3.23;;;1.43;;
10275;SDS011;5183;51.190;6.820;2022-09-03T03:03:33;1.93;;;1.60;;
10275;SDS011;5183;51.190;6.820;2022-09-03T03:06:01;2.23;;;1.70;;
10275;SDS011;5183;51.190;6.820;2022-09-03T03:08:32;1.97;;;1.30;;
10275;SDS011;5183;51.190;6.820;2022-09-03T03:10:59;1.97;;;1.53;;
10275;SDS011;5183;51.190;6.820;2022-09-03T03:13:26;1.70;;;1.60;;
10275;SDS011;5183;51.190;6.820;2022-09-03T03:15:54;2.50;;;1.70;;
10275;SDS011;5183;51.190;6.820;2022-09-03T03:18:22;2.37;;;1.40;;
10275;SDS011;5183;51.190;6.820;2022-09-03T03:20:49;2.07;;;1.50;;
10275;SDS011;5183;51.190;6.820;2022-09-03T03:23:16;1.63;;;1.27;;
10275;SDS011;5183;51.190;6.820;2022-09-03T03:25:44;1.93;;;1.37;;
10275;SDS011;5183;51.190;6.820;2022-09-03T03:28:11;3.73;;;1.60;;
10275;SDS011;5183;51.190;6.820;2022-09-03T03:30:39;2.53;;;1.60;;
10275;SDS011;5183;51.190;6.820;2022-09-03T03:33:07;1.67;;;1.30;;
10275;SDS011;5183;51.190;6.820;2022-09-03T03:35:34;1.70;;;1.27;;
10275;SDS011;5183;51.190;6.820;2022-09-03T03:38:01;1.83;;;1.60;;
10275;SDS011;5183;51.190;6.820;2022-09-03T03:40:29;1.60;;;1.27;;
10275;SDS011;5183;51.190;6.820;2022-09-03T03:42:57;4.03;;;1.60;;
10275;SDS011;5183;51.190;6.820;2022-09-03T03:45:24;2.30;;;1.47;;
10275;SDS011;5183;51.190;6.820;2022-09-03T03:47:55;1.80;;;1.33;;
10275;SDS011;5183;51.190;6.820;2022-09-03T03:50:22;1.63;;;1.43;;
10275;SDS011;5183;51.190;6.820;2022-09-03T03:52:49;3.40;;;1.90;;
10275;SDS011;5183;51.190;6.820;2022-09-03T03:55:16;1.70;;;1.60;;
10275;SDS011;5183;51.190;6.820;2022-09-03T03:57:43;1.60;;;1.50;;
10275;SDS011;5183;51.190;6.820;2022-09-03T04:00:12;2.00;;;1.83;;
10275;SDS011;5183;51.190;6.820;2022-09-03T04:02:40;1.90;;;1.70;;
10275;SDS011;5183;51.190;6.820;2022-09-03T04:05:07;3.03;;;1.83;;
10275;SDS011;5183;51.190;6.820;2022-09-03T04:07:34;1.50;;;1.40;;
10275;SDS011;5183;51.190;6.820;2022-09-03T04:10:01;1.87;;;1.70;;
10275;SDS011;5183;51.190;6.820;2022-09-03T04:12:28;1.60;;;1.43;;
10275;SDS011;5183;51.190;6.820;2022-09-03T04:14:55;2.77;;;1.50;;
10275;SDS011;5183;51.190;6.820;2022-09-03T04:17:23;1.83;;;1.50;;
10275;SDS011;5183;51.190;6.820;2022-09-03T04:19:50;2.80;;;1.50;;
10275;SDS011;5183;51.190;6.820;2022-09-03T04:22:17;1.63;;;1.47;;
10275;SDS011;5183;51.190;6.820;2022-09-03T04:24:44;2.60;;;1.60;;
10275;SDS011;5183;51.190;6.820;2022-09-03T04:27:11;1.93;;;1.47;;
10275;SDS011;5183;51.190;6.820;2022-09-03T04:29:38;2.63;;;1.50;;
10275;SDS011;5183;51.190;6.820;2022-09-03T04:32:05;1.83;;;1.50;;
10275;SDS011;5183;51.190;6.820;2022-09-03T04:34:50;2.13;;;1.50;;
10275;SDS011;5183;51.190;6.820;2022-09-03T04:37:17;2.40;;;1.70;;
10275;SDS011;5183;51.190;6.820;2022-09-03T04:39:44;2.47;;;1.50;;
10275;SDS011;5183;51.190;6.820;2022-09-03T04:42:11;1.93;;;1.50;;
10275;SDS011;5183;51.190;6.820;2022-09-03T04:44:38;2.57;;;1.50;;
10275;SDS011;5183;51.190;6.820;2022-09-03T04:47:05;2.00;;;1.43;;
10275;SDS011;5183;51.190;6.820;2022-09-03T04:49:32;2.47;;;1.40;;
10275;SDS011;5183;51.190;6.820;2022-09-03T04:52:01;1.53;;;1.40;;
10275;SDS011;5183;51.190;6.820;2022-09-03T04:54:28;2.33;;;1.47;;
10275;SDS011;5183;51.190;6.820;2022-09-03T04:56:55;2.57;;;1.70;;
10275;SDS011;5183;51.190;6.820;2022-09-03T04:59:22;2.07;;;1.50;;
10275;SDS011;5183;51.190;6.820;2022-09-03T05:01:49;2.93;;;1.50;;
10275;SDS011;5183;51.190;6.820;2022-09-03T05:04:17;1.87;;;1.50;;
10275;SDS011;5183;51.190;6.820;2022-09-03T05:06:44;2.60;;;1.77;;
10275;SDS011;5183;51.190;6.820;2022-09-03T05:09:12;2.30;;;1.67;;
10275;SDS011;5183;51.190;6.820;2022-09-03T05:11:39;2.77;;;2.00;;
10275;SDS011;5183;51.190;6.820;2022-09-03T05:14:06;6.13;;;3.03;;
10275;SDS011;5183;51.190;6.820;2022-09-03T05:16:36;3.37;;;2.57;;
10275;SDS011;5183;51.190;6.820;2022-09-03T05:19:03;1.93;;;1.70;;
10275;SDS011;5183;51.190;6.820;2022-09-03T05:21:32;2.37;;;1.80;;
10275;SDS011;5183;51.190;6.820;2022-09-03T05:24:01;2.37;;;1.40;;
10275;SDS011;5183;51.190;6.820;2022-09-03T05:26:30;2.03;;;1.50;;
10275;SDS011;5183;51.190;6.820;2022-09-03T05:29:01;2.27;;;1.60;;
10275;SDS011;5183;51.190;6.820;2022-09-03T05:31:32;1.50;;;1.40;;
10275;SDS011;5183;51.190;6.820;2022-09-03T05:34:00;1.93;;;1.63;;
10275;SDS011;5183;51.190;6.820;2022-09-03T05:36:29;2.60;;;1.50;;
10275;SDS011;5183;51.190;6.820;2022-09-03T05:38:58;3.60;;;1.70;;
10275;SDS011;5183;51.190;6.820;2022-09-03T05:41:25;1.97;;;1.63;;
10275;SDS011;5183;51.190;6.820;2022-09-03T05:43:55;2.50;;;1.90;;
10275;SDS011;5183;51.190;6.820;2022-09-03T05:46:24;1.97;;;1.83;;
10275;SDS011;5183;51.190;6.820;2022-09-03T05:48:55;4.67;;;4.10;;
10275;SDS011;5183;51.190;6.820;2022-09-03T05:51:22;4.10;;;3.67;;
10275;SDS011;5183;51.190;6.820;2022-09-03T05:53:49;4.73;;;3.80;;
10275;SDS011;5183;51.190;6.820;2022-09-03T05:56:18;2.87;;;1.70;;
10275;SDS011;5183;51.190;6.820;2022-09-03T05:58:46;5.10;;;2.70;;
10275;SDS011;5183;51.190;6.820;2022-09-03T06:01:16;5.43;;;3.13;;
10275;SDS011;5183;51.190;6.820;2022-09-03T06:03:44;3.30;;;2.50;;
10275;SDS011;5183;51.190;6.820;2022-09-03T06:06:14;4.17;;;2.23;;
10275;SDS011;5183;51.190;6.820;2022-09-03T06:08:41;3.87;;;2.57;;
10275;SDS011;5183;51.190;6.820;2022-09-03T06:11:09;2.13;;;1.80;;
10275;SDS011;5183;51.190;6.820;2022-09-03T06:13:36;3.57;;;2.13;;
10275;SDS011;5183;51.190;6.820;2022-09-03T06:16:04;1.80;;;1.70;;
10275;SDS011;5183;51.190;6.820;2022-09-03T06:18:34;4.33;;;2.10;;
10275;SDS011;5183;51.190;6.820;2022-09-03T06:21:01;2.10;;;1.90;;
10275;SDS011;5183;51.190;6.820;2022-09-03T06:23:29;2.50;;;1.83;;
10275;SDS011;5183;51.190;6.820;2022-09-03T06:26:00;2.00;;;1.77;;
10275;SDS011;5183;51.190;6.820;2022-09-03T06:28:29;2.87;;;1.70;;
10275;SDS011;5183;51.190;6.820;2022-09-03T06:30:56;2.17;;;1.40;;
10275;SDS011;5183;51.190;6.820;2022-09-03T06:33:24;4.73;;;1.77;;
10275;SDS011;5183;51.190;6.820;2022-09-03T06:35:54;2.23;;;1.70;;
10275;SDS011;5183;51.190;6.820;2022-09-03T06:38:24;1.77;;;1.40;;
10275;SDS011;5183;51.190;6.820;2022-09-03T06:40:53;2.77;;;1.73;;
10275;SDS011;5183;51.190;6.820;2022-09-03T06:43:21;3.10;;;2.60;;
10275;SDS011;5183;51.190;6.820;2022-09-03T06:45:52;3.73;;;2.47;;
10275;SDS011;5183;51.190;6.820;2022-09-03T06:48:19;2.00;;;1.80;;
10275;SDS011;5183;51.190;6.820;2022-09-03T06:50:53;3.90;;;1.77;;
10275;SDS011;5183;51.190;6.820;2022-09-03T06:53:21;4.20;;;1.63;;
10275;SDS011;5183;51.190;6.820;2022-09-03T06:55:53;2.80;;;1.43;;
10275;SDS011;5183;51.190;6.820;2022-09-03T06:58:21;2.43;;;1.50;;
10275;SDS011;5183;51.190;6.820;2022-09-03T07:00:48;2.00;;;1.70;;
10275;SDS011;5183;51.190;6.820;2022-09-03T07:03:17;2.27;;;1.60;;
10275;SDS011;5183;51.190;6.820;2022-09-03T07:05:45;3.43;;;1.50;;
10275;SDS011;5183;51.190;6.820;2022-09-03T07:08:13;3.23;;;1.60;;
10275;SDS011;5183;51.190;6.820;2022-09-03T07:10:44;3.33;;;1.47;;
10275;SDS011;5183;51.190;6.820;2022-09-03T07:13:13;2.40;;;1.63;;
10275;SDS011;5183;51.190;6.820;2022-09-03T07:15:39;2.43;;;1.63;;
10275;SDS011;5183;51.190;6.820;2022-09-03T07:18:07;2.80;;;1.70;;
10275;SDS011;5183;51.190;6.820;2022-09-03T07:20:33;2.73;;;1.40;;
10275;SDS011;5183;51.190;6.820;2022-09-03T07:23:00;1.50;;;1.40;;
10275;SDS011;5183;51.190;6.820;2022-09-03T07:25:29;2.00;;;1.30;;
10275;SDS011;5183;51.190;6.820;2022-09-03T07:27:56;2.07;;;1.40;;
10275;SDS011;5183;51.190;6.820;2022-09-03T07:30:24;3.60;;;2.50;;
10275;SDS011;5183;51.190;6.820;2022-09-03T07:32:51;3.67;;;2.80;;
10275;SDS011;5183;51.190;6.820;2022-09-03T07:35:19;2.37;;;1.43;;
10275;SDS011;5183;51.190;6.820;2022-09-03T07:37:49;1.67;;;1.53;;
10275;SDS011;5183;51.190;6.820;2022-09-03T07:40:16;3.43;;;2.20;;
10275;SDS011;5183;51.190;6.820;2022-09-03T07:42:45;2.63;;;1.73;;
10275;SDS011;5183;51.190;6.820;2022-09-03T07:45:12;1.60;;;1.43;;
10275;SDS011;5183;51.190;6.820;2022-09-03T07:47:44;2.33;;;1.57;;
10275;SDS011;5183;51.190;6.820;2022-09-03T07:50:13;1.73;;;1.30;;
10275;SDS011;5183;51.190;6.820;2022-09-03T07:52:41;3.27;;;1.53;;
10275;SDS011;5183;51.190;6.820;2022-09-03T07:55:08;2.10;;;1.47;;
10275;SDS011;5183;51.190;6.820;2022-09-03T07:57:35;4.37;;;1.60;;
10275;SDS011;5183;51.190;6.820;2022-09-03T08:00:04;1.47;;;1.33;;
10275;SDS011;5183;51.190;6.820;2022-09-03T08:02:32;3.83;;;1.53;;
10275;SDS011;5183;51.190;6.820;2022-09-03T08:04:59;3.70;;;1.60;;
10275;SDS011;5183;51.190;6.820;2022-09-03T08:07:27;2.07;;;1.50;;
10275;SDS011;5183;51.190;6.820;2022-09-03T08:09:54;2.07;;;1.47;;
10275;SDS011;5183;51.190;6.820;2022-09-03T08:12:21;3.43;;;3.13;;
10275;SDS011;5183;51.190;6.820;2022-09-03T08:14:48;3.33;;;1.50;;
10275;SDS011;5183;51.190;6.820;2022-09-03T08:17:17;2.50;;;1.57;;
10275;SDS011;5183;51.190;6.820;2022-09-03T08:19:44;2.77;;;1.90;;
10275;SDS011;5183;51.190;6.820;2022-09-03T08:22:11;4.07;;;1.80;;
10275;SDS011;5183;51.190;6.820;2022-09-03T08:24:39;1.43;;;1.33;;
10275;SDS011;5183;51.190;6.820;2022-09-03T08:27:06;4.30;;;1.77;;
10275;SDS011;5183;51.190;6.820;2022-09-03T08:29:33;3.93;;;1.63;;
10275;SDS011;5183;51.190;6.820;2022-09-03T08:32:01;3.27;;;1.70;;
10275;SDS011;5183;51.190;6.820;2022-09-03T08:34:30;3.37;;;1.63;;
10275;SDS011;5183;51.190;6.820;2022-09-03T08:36:57;2.57;;;1.57;;
10275;SDS011;5183;51.190;6.820;2022-09-03T08:39:25;1.77;;;1.50;;
10275;SDS011;5183;51.190;6.820;2022-09-03T08:42:06;3.93;;;1.63;;
10275;SDS011;5183;51.190;6.820;2022-09-03T08:45:04;2.57;;;2.13;;
10275;SDS011;5183;51.190;6.820;2022-09-03T08:47:35;4.10;;;1.80;;
10275;SDS011;5183;51.190;6.820;2022-09-03T08:50:08;3.97;;;1.63;;
10275;SDS011;5183;51.190;6.820;2022-09-03T08:52:49;2.43;;;1.50;;
10275;SDS011;5183;51.190;6.820;2022-09-03T08:55:22;4.73;;;1.60;;
10275;SDS011;5183;51.190;6.820;2022-09-03T08:57:54;4.50;;;1.70;;
10275;SDS011;5183;51.190;6.820;2022-09-03T09:00:37;3.43;;;1.70;;
10275;SDS011;5183;51.190;6.820;2022-09-03T09:06:18;2.67;;;1.60;;
10275;SDS011;5183;51.190;6.820;2022-09-03T09:08:52;2.17;;;1.57;;
10275;SDS011;5183;51.190;6.820;2022-09-03T09:11:30;6.07;;;1.90;;
10275;SDS011;5183;51.190;6.820;2022-09-03T09:14:06;2.20;;;1.60;;
10275;SDS011;5183;51.190;6.820;2022-09-03T09:16:43;4.00;;;1.67;;
10275;SDS011;5183;51.190;6.820;2022-09-03T09:19:22;3.93;;;1.50;;
10275;SDS011;5183;51.190;6.820;2022-09-03T09:22:06;1.67;;;1.43;;
10275;SDS011;5183;51.190;6.820;2022-09-03T09:24:37;4.53;;;2.00;;
10275;SDS011;5183;51.190;6.820;2022-09-03T09:27:07;4.30;;;2.00;;
10275;SDS011;5183;51.190;6.820;2022-09-03T09:29:34;2.40;;;1.60;;
10275;SDS011;5183;51.190;6.820;2022-09-03T09:32:03;3.47;;;2.03;;
10275;SDS011;5183;51.190;6.820;2022-09-03T09:34:34;2.23;;;1.47;;
10275;SDS011;5183;51.190;6.820;2022-09-03T09:37:02;3.40;;;2.50;;
10275;SDS011;5183;51.190;6.820;2022-09-03T09:39:33;4.30;;;1.63;;
10275;SDS011;5183;51.190;6.820;2022-09-03T09:42:00;2.60;;;1.50;;
10275;SDS011;5183;51.190;6.820;2022-09-03T09:44:34;3.10;;;1.70;;
10275;SDS011;5183;51.190;6.820;2022-09-03T09:47:03;3.67;;;1.80;;
10275;SDS011;5183;51.190;6.820;2022-09-03T09:49:33;4.97;;;1.83;;
10275;SDS011;5183;51.190;6.820;2022-09-03T09:52:05;2.73;;;1.73;;
10275;SDS011;5183;51.190;6.820;2022-09-03T09:54:36;3.50;;;1.80;;
10275;SDS011;5183;51.190;6.820;2022-09-03T09:57:04;2.43;;;1.90;;
10275;SDS011;5183;51.190;6.820;2022-09-03T09:59:33;3.87;;;2.10;;
10275;SDS011;5183;51.190;6.820;2022-09-03T10:02:10;2.33;;;1.90;;
10275;SDS011;5183;51.190;6.820;2022-09-03T10:04:38;3.03;;;2.13;;
10275;SDS011;5183;51.190;6.820;2022-09-03T10:07:17;4.23;;;2.47;;
10275;SDS011;5183;51.190;6.820;2022-09-03T10:09:56;3.37;;;2.43;;
10275;SDS011;5183;51.190;6.820;2022-09-03T10:12:26;2.93;;;1.90;;
10275;SDS011;5183;51.190;6.820;2022-09-03T10:14:59;3.67;;;2.30;;
10275;SDS011;5183;51.190;6.820;2022-09-03T10:17:39;2.83;;;1.90;;
10275;SDS011;5183;51.190;6.820;2022-09-03T10:20:13;3.20;;;1.90;;
10275;SDS011;5183;51.190;6.820;2022-09-03T10:22:56;2.30;;;1.93;;
10275;SDS011;5183;51.190;6.820;2022-09-03T10:25:34;3.73;;;2.00;;
10275;SDS011;5183;51.190;6.820;2022-09-03T10:28:07;2.73;;;1.90;;
10275;SDS011;5183;51.190;6.820;2022-09-03T10:30:39;3.43;;;2.23;;
10275;SDS011;5183;51.190;6.820;2022-09-03T10:33:15;3.40;;;1.90;;
10275;SDS011;5183;51.190;6.820;2022-09-03T10:35:51;4.40;;;3.00;;
10275;SDS011;5183;51.190;6.820;2022-09-03T10:38:25;4.33;;;3.10;;
10275;SDS011;5183;51.190;6.820;2022-09-03T10:40:57;2.93;;;2.20;;
10275;SDS011;5183;51.190;6.820;2022-09-03T10:43:37;2.23;;;1.80;;
10275;SDS011;5183;51.190;6.820;2022-09-03T10:46:27;3.93;;;2.07;;
10275;SDS011;5183;51.190;6.820;2022-09-03T10:49:06;2.13;;;1.93;;
10275;SDS011;5183;51.190;6.820;2022-09-03T10:51:49;5.10;;;1.93;;
10275;SDS011;5183;51.190;6.820;2022-09-03T10:57:16;2.80;;;1.80;;
10275;SDS011;5183;51.190;6.820;2022-09-03T10:59:56;3.07;;;2.13;;
10275;SDS011;5183;51.190;6.820;2022-09-03T11:02:38;2.93;;;2.10;;
10275;SDS011;5183;51.190;6.820;2022-09-03T11:05:19;4.00;;;2.20;;
10275;SDS011;5183;51.190;6.820;2022-09-03T11:07:50;2.03;;;1.90;;
10275;SDS011;5183;51.190;6.820;2022-09-03T11:10:24;3.13;;;2.00;;
10275;SDS011;5183;51.190;6.820;2022-09-03T11:12:54;2.10;;;1.80;;
10275;SDS011;5183;51.190;6.820;2022-09-03T11:15:30;3.40;;;2.00;;
10275;SDS011;5183;51.190;6.820;2022-09-03T11:18:01;3.73;;;1.80;;
10275;SDS011;5183;51.190;6.820;2022-09-03T11:20:33;3.67;;;2.07;;
10275;SDS011;5183;51.190;6.820;2022-09-03T11:23:02;2.87;;;2.00;;
10275;SDS011;5183;51.190;6.820;2022-09-03T11:25:32;2.00;;;1.80;;
10275;SDS011;5183;51.190;6.820;2022-09-03T11:28:04;2.70;;;1.83;;
10275;SDS011;5183;51.190;6.820;2022-09-03T11:30:46;2.30;;;2.10;;
10275;SDS011;5183;51.190;6.820;2022-09-03T11:33:20;2.27;;;1.87;;
10275;SDS011;5183;51.190;6.820;2022-09-03T11:35:54;2.87;;;1.90;;
10275;SDS011;5183;51.190;6.820;2022-09-03T11:38:22;2.57;;;1.93;;
10275;SDS011;5183;51.190;6.820;2022-09-03T11:41:02;2.90;;;2.10;;
10275;SDS011;5183;51.190;6.820;2022-09-03T11:43:36;2.53;;;1.83;;
10275;SDS011;5183;51.190;6.820;2022-09-03T11:46:05;4.20;;;1.93;;
10275;SDS011;5183;51.190;6.820;2022-09-03T11:48:37;2.10;;;1.80;;
10275;SDS011;5183;51.190;6.820;2022-09-03T11:51:20;3.30;;;1.87;;
10275;SDS011;5183;51.190;6.820;2022-09-03T11:53:57;4.10;;;1.90;;
10275;SDS011;5183;51.190;6.820;2022-09-03T11:56:27;2.63;;;1.87;;
10275;SDS011;5183;51.190;6.820;2022-09-03T11:58:59;2.27;;;1.70;;
10275;SDS011;5183;51.190;6.820;2022-09-03T12:01:41;3.33;;;2.27;;
10275;SDS011;5183;51.190;6.820;2022-09-03T12:04:16;4.73;;;1.83;;
10275;SDS011;5183;51.190;6.820;2022-09-03T12:06:48;3.00;;;2.00;;
10275;SDS011;5183;51.190;6.820;2022-09-03T12:12:41;2.15;;;1.85;;
10275;SDS011;5183;51.190;6.820;2022-09-03T12:15:16;1.88;;;1.77;;
10275;SDS011;5183;51.190;6.820;2022-09-03T12:17:57;1.90;;;1.70;;
10275;SDS011;5183;51.190;6.820;2022-09-03T12:20:44;2.53;;;1.80;;
10275;SDS011;5183;51.190;6.820;2022-09-03T12:23:12;3.03;;;1.70;;
10275;SDS011;5183;51.190;6.820;2022-09-03T12:25:51;2.17;;;1.63;;
10275;SDS011;5183;51.190;6.820;2022-09-03T12:28:20;2.30;;;2.10;;
10275;SDS011;5183;51.190;6.820;2022-09-03T12:30:49;2.35;;;2.15;;
10275;SDS011;5183;51.190;6.820;2022-09-03T12:33:17;3.65;;;2.22;;
10275;SDS011;5183;51.190;6.820;2022-09-03T12:35:54;3.88;;;2.13;;
10275;SDS011;5183;51.190;6.820;2022-09-03T12:38:22;2.70;;;2.15;;
10275;SDS011;5183;51.190;6.820;2022-09-03T12:40:49;2.45;;;1.92;;
10275;SDS011;5183;51.190;6.820;2022-09-03T12:43:17;2.40;;;2.20;;
10275;SDS011;5183;51.190;6.820;2022-09-03T12:45:46;2.58;;;2.30;;
10275;SDS011;5183;51.190;6.820;2022-09-03T12:48:15;3.53;;;2.58;;
10275;SDS011;5183;51.190;6.820;2022-09-03T12:50:44;3.08;;;2.20;;
10275;SDS011;5183;51.190;6.820;2022-09-03T12:53:13;2.65;;;2.30;;
10275;SDS011;5183;51.190;6.820;2022-09-03T12:55:44;2.83;;;2.63;;
10275;SDS011;5183;51.190;6.820;2022-09-03T12:58:15;2.70;;;2.40;;
10275;SDS011;5183;51.190;6.820;2022-09-03T13:00:48;2.95;;;2.65;;
10275;SDS011;5183;51.190;6.820;2022-09-03T13:03:21;2.60;;;2.40;;
10275;SDS011;5183;51.190;6.820;2022-09-03T13:05:53;2.92;;;2.63;;
10275;SDS011;5183;51.190;6.820;2022-09-03T13:08:24;2.97;;;2.60;;
10275;SDS011;5183;51.190;6.820;2022-09-03T13:10:55;2.92;;;2.55;;
10275;SDS011;5183;51.190;6.820;2022-09-03T13:13:24;3.40;;;2.53;;
10275;SDS011;5183;51.190;6.820;2022-09-03T13:16:01;2.58;;;2.38;;
10275;SDS011;5183;51.190;6.820;2022-09-03T13:18:45;3.65;;;2.53;;
10275;SDS011;5183;51.190;6.820;2022-09-03T13:21:19;3.10;;;2.47;;
10275;SDS011;5183;51.190;6.820;2022-09-03T13:23:57;2.83;;;2.50;;
10275;SDS011;5183;51.190;6.820;2022-09-03T13:26:46;3.00;;;2.70;;
10275;SDS011;5183;51.190;6.820;2022-09-03T13:29:23;3.03;;;2.50;;
10275;SDS011;5183;51.190;6.820;2022-09-03T13:32:06;2.58;;;2.17;;
10275;SDS011;5183;51.190;6.820;2022-09-03T13:34:46;2.25;;;2.10;;
10275;SDS011;5183;51.190;6.820;2022-09-03T13:37:19;3.13;;;2.30;;
10275;SDS011;5183;51.190;6.820;2022-09-03T13:39:53;2.45;;;2.25;;
10275;SDS011;5183;51.190;6.820;2022-09-03T13:42:24;2.63;;;2.42;;
10275;SDS011;5183;51.190;6.820;2022-09-03T13:44:57;3.08;;;2.63;;
10275;SDS011;5183;51.190;6.820;2022-09-03T13:47:33;4.10;;;3.70;;
10275;SDS011;5183;51.190;6.820;2022-09-03T13:50:26;2.25;;;2.05;;
10275;SDS011;5183;51.190;6.820;2022-09-03T13:52:55;3.47;;;2.40;;
10275;SDS011;5183;51.190;6.820;2022-09-03T13:55:27;2.35;;;2.15;;
10275;SDS011;5183;51.190;6.820;2022-09-03T13:58:02;2.67;;;2.10;;
10275;SDS011;5183;51.190;6.820;2022-09-03T14:00:33;2.92;;;2.20;;
10275;SDS011;5183;51.190;6.820;2022-09-03T14:03:11;2.65;;;2.45;;
10275;SDS011;5183;51.190;6.820;2022-09-03T14:05:49;2.88;;;2.22;;
10275;SDS011;5183;51.190;6.820;2022-09-03T14:08:27;2.75;;;2.20;;
10275;SDS011;5183;51.190;6.820;2022-09-03T14:11:01;3.30;;;3.00;;
10275;SDS011;5183;51.190;6.820;2022-09-03T14:13:46;2.58;;;2.17;;
10275;SDS011;5183;51.190;6.820;2022-09-03T14:16:24;2.80;;;2.03;;
10275;SDS011;5183;51.190;6.820;2022-09-03T14:19:02;2.42;;;2.22;;
10275;SDS011;5183;51.190;6.820;2022-09-03T14:21:38;2.20;;;1.98;;
10275;SDS011;5183;51.190;6.820;2022-09-03T14:24:11;2.55;;;2.05;;
10275;SDS011;5183;51.190;6.820;2022-09-03T14:26:48;4.65;;;2.20;;
10275;SDS011;5183;51.190;6.820;2022-09-03T14:29:17;3.28;;;2.30;;
10275;SDS011;5183;51.190;6.820;2022-09-03T14:34:59;3.15;;;2.00;;
10275;SDS011;5183;51.190;6.820;2022-09-03T14:37:45;2.10;;;1.83;;
10275;SDS011;5183;51.190;6.820;2022-09-03T14:40:30;2.53;;;1.80;;
10275;SDS011;5183;51.190;6.820;2022-09-03T14:43:09;2.50;;;1.90;;
10275;SDS011;5183;51.190;6.820;2022-09-03T14:45:55;1.85;;;1.63;;
10275;SDS011;5183;51.190;6.820;2022-09-03T14:48:43;2.15;;;1.95;;
10275;SDS011;5183;51.190;6.820;2022-09-03T14:51:25;3.10;;;2.80;;
10275;SDS011;5183;51.190;6.820;2022-09-03T14:54:09;2.30;;;2.10;;
10275;SDS011;5183;51.190;6.820;2022-09-03T14:56:46;3.15;;;1.92;;
10275;SDS011;5183;51.190;6.820;2022-09-03T14:59:32;2.65;;;1.80;;
10275;SDS011;5183;51.190;6.820;2022-09-03T15:02:18;2.03;;;1.83;;
10275;SDS011;5183;51.190;6.820;2022-09-03T15:05:09;2.55;;;2.30;;
10275;SDS011;5183;51.190;6.820;2022-09-03T15:07:44;2.40;;;2.20;;
10275;SDS011;5183;51.190;6.820;2022-09-03T15:10:17;3.88;;;2.33;;
10275;SDS011;5183;51.190;6.820;2022-09-03T15:12:52;8.18;;;2.30;;
10275;SDS011;5183;51.190;6.820;2022-09-03T15:15:23;3.40;;;2.00;;
10275;SDS011;5183;51.190;6.820;2022-09-03T15:18:02;4.00;;;2.05;;
10275;SDS011;5183;51.190;6.820;2022-09-03T15:20:44;2.50;;;2.00;;
10275;SDS011;5183;51.190;6.820;2022-09-03T15:23:18;2.78;;;1.90;;
10275;SDS011;5183;51.190;6.820;2022-09-03T15:29:04;5.25;;;2.60;;
10275;SDS011;5183;51.190;6.820;2022-09-03T15:31:44;2.78;;;2.13;;
10275;SDS011;5183;51.190;6.820;2022-09-03T15:37:17;3.10;;;2.30;;
10275;SDS011;5183;51.190;6.820;2022-09-03T15:39:57;2.05;;;1.85;;
10275;SDS011;5183;51.190;6.820;2022-09-03T15:42:28;2.70;;;2.50;;
10275;SDS011;5183;51.190;6.820;2022-09-03T15:45:00;3.22;;;2.60;;
10275;SDS011;5183;51.190;6.820;2022-09-03T15:47:36;4.55;;;3.53;;
10275;SDS011;5183;51.190;6.820;2022-09-03T15:50:09;3.38;;;3.10;;
10275;SDS011;5183;51.190;6.820;2022-09-03T15:52:45;4.28;;;2.40;;